sensor_id;sensor_type;location;lat;lon;timestamp;pressure;altitude;pressure_sealevel;temperature;humidity
58662;BME280;44432;49.786;22.760;2022-08-03T00:00:11;99578.54;;;16.52;83.28
58662;BME280;44432;49.786;22.760;2022-08-03T00:03:04;99579.08;;;16.49;83.40
58662;BME280;44432;49.786;22.760;2022-08-03T00:05:35;99578.58;;;16.47;83.53
58662;BME280;44432;49.786;22.760;2022-08-03T00:08:06;99578.84;;;16.47;83.59
58662;BME280;44432;49.786;22.760;2022-08-03T00:10:36;99582.00;;;16.45;83.46
58662;BME280;44432;49.786;22.760;2022-08-03T00:13:07;99585.59;;;16.42;83.52
58662;BME280;44432;49.786;22.760;2022-08-03T00:15:41;99591.56;;;16.39;83.43
58662;BME280;44432;49.786;22.760;2022-08-03T00:18:12;99589.23;;;16.36;83.50
58662;BME280;44432;49.786;22.760;2022-08-03T00:20:43;99590.09;;;16.34;83.66
58662;BME280;44432;49.786;22.760;2022-08-03T00:23:13;99588.10;;;16.29;83.77
58662;BME280;44432;49.786;22.760;2022-08-03T00:25:44;99588.55;;;16.28;83.77
58662;BME280;44432;49.786;22.760;2022-08-03T00:28:15;99587.14;;;16.26;84.04
58662;BME280;44432;49.786;22.760;2022-08-03T00:30:46;99589.36;;;16.25;84.06
58662;BME280;44432;49.786;22.760;2022-08-03T00:33:16;99586.05;;;16.25;84.15
58662;BME280;44432;49.786;22.760;2022-08-03T00:35:47;99582.36;;;16.23;84.14
58662;BME280;44432;49.786;22.760;2022-08-03T00:38:18;99583.90;;;16.24;84.25
58662;BME280;44432;49.786;22.760;2022-08-03T00:40:48;99584.14;;;16.22;84.36
58662;BME280;44432;49.786;22.760;2022-08-03T00:43:23;99584.31;;;16.22;84.40
58662;BME280;44432;49.786;22.760;2022-08-03T00:45:54;99577.92;;;16.20;84.50
58662;BME280;44432;49.786;22.760;2022-08-03T00:48:25;99578.88;;;16.19;84.55
58662;BME280;44432;49.786;22.760;2022-08-03T00:50:56;99579.81;;;16.18;84.62
58662;BME280;44432;49.786;22.760;2022-08-03T00:53:27;99580.60;;;16.18;84.61
58662;BME280;44432;49.786;22.760;2022-08-03T00:55:58;99579.23;;;16.15;84.51
58662;BME280;44432;49.786;22.760;2022-08-03T00:58:29;99581.45;;;16.14;84.70
58662;BME280;44432;49.786;22.760;2022-08-03T01:01:00;99581.95;;;16.13;84.64
58662;BME280;44432;49.786;22.760;2022-08-03T01:03:30;99583.05;;;16.11;84.67
58662;BME280;44432;49.786;22.760;2022-08-03T01:08:45;99580.79;;;16.07;84.55
58662;BME280;44432;49.786;22.760;2022-08-03T01:11:21;99584.05;;;16.04;84.57
58662;BME280;44432;49.786;22.760;2022-08-03T01:14:00;99588.88;;;16.02;84.58
58662;BME280;44432;49.786;22.760;2022-08-03T01:16:39;99586.04;;;15.99;84.46
58662;BME280;44432;49.786;22.760;2022-08-03T01:19:29;99585.74;;;15.97;84.68
58662;BME280;44432;49.786;22.760;2022-08-03T01:22:13;99588.16;;;15.96;84.71
58662;BME280;44432;49.786;22.760;2022-08-03T01:24:53;99584.48;;;15.95;84.81
58662;BME280;44432;49.786;22.760;2022-08-03T01:27:30;99586.59;;;15.94;84.94
58662;BME280;44432;49.786;22.760;2022-08-03T01:30:08;99593.14;;;15.93;84.84
58662;BME280;44432;49.786;22.760;2022-08-03T01:32:44;99588.30;;;15.91;84.83
58662;BME280;44432;49.786;22.760;2022-08-03T01:35:19;99593.69;;;15.91;85.04
58662;BME280;44432;49.786;22.760;2022-08-03T01:37:57;99596.89;;;15.92;85.20
58662;BME280;44432;49.786;22.760;2022-08-03T01:40:31;99593.28;;;15.92;85.19
58662;BME280;44432;49.786;22.760;2022-08-03T01:43:05;99594.95;;;15.93;85.08
58662;BME280;44432;49.786;22.760;2022-08-03T01:45:37;99592.02;;;15.94;85.22
58662;BME280;44432;49.786;22.760;2022-08-03T01:48:10;99587.62;;;15.94;85.28
58662;BME280;44432;49.786;22.760;2022-08-03T01:50:42;99580.68;;;15.97;85.28
58662;BME280;44432;49.786;22.760;2022-08-03T01:53:15;99582.20;;;15.98;85.27
58662;BME280;44432;49.786;22.760;2022-08-03T01:55:50;99578.31;;;15.98;85.30
58662;BME280;44432;49.786;22.760;2022-08-03T01:58:22;99579.50;;;16.00;85.24
58662;BME280;44432;49.786;22.760;2022-08-03T02:00:56;99576.96;;;16.00;85.25
58662;BME280;44432;49.786;22.760;2022-08-03T02:03:29;99578.44;;;16.00;85.21
58662;BME280;44432;49.786;22.760;2022-08-03T02:06:01;99577.71;;;15.98;85.23
58662;BME280;44432;49.786;22.760;2022-08-03T02:08:33;99574.50;;;15.97;85.23
58662;BME280;44432;49.786;22.760;2022-08-03T02:11:04;99575.85;;;15.95;85.08
58662;BME280;44432;49.786;22.760;2022-08-03T02:13:35;99575.86;;;15.89;84.88
58662;BME280;44432;49.786;22.760;2022-08-03T02:16:07;99579.73;;;15.85;85.06
58662;BME280;44432;49.786;22.760;2022-08-03T02:18:39;99581.43;;;15.82;85.03
58662;BME280;44432;49.786;22.760;2022-08-03T02:21:12;99582.41;;;15.80;85.17
58662;BME280;44432;49.786;22.760;2022-08-03T02:23:43;99590.47;;;15.79;85.12
58662;BME280;44432;49.786;22.760;2022-08-03T02:26:16;99591.47;;;15.78;85.23
58662;BME280;44432;49.786;22.760;2022-08-03T02:28:50;99592.89;;;15.77;85.17
58662;BME280;44432;49.786;22.760;2022-08-03T02:31:26;99593.48;;;15.74;85.29
58662;BME280;44432;49.786;22.760;2022-08-03T02:33:59;99596.05;;;15.75;85.23
58662;BME280;44432;49.786;22.760;2022-08-03T02:36:35;99595.59;;;15.73;85.48
58662;BME280;44432;49.786;22.760;2022-08-03T02:39:10;99594.19;;;15.72;85.25
58662;BME280;44432;49.786;22.760;2022-08-03T02:41:46;99593.54;;;15.72;85.46
58662;BME280;44432;49.786;22.760;2022-08-03T02:44:22;99590.77;;;15.72;85.49
58662;BME280;44432;49.786;22.760;2022-08-03T02:46:57;99595.50;;;15.71;85.45
58662;BME280;44432;49.786;22.760;2022-08-03T02:49:29;99595.39;;;15.69;85.31
58662;BME280;44432;49.786;22.760;2022-08-03T02:52:01;99592.45;;;15.67;85.49
58662;BME280;44432;49.786;22.760;2022-08-03T02:54:33;99594.04;;;15.67;85.51
58662;BME280;44432;49.786;22.760;2022-08-03T02:57:07;99590.80;;;15.67;85.61
58662;BME280;44432;49.786;22.760;2022-08-03T02:59:40;99590.69;;;15.67;85.60
58662;BME280;44432;49.786;22.760;2022-08-03T03:02:12;99591.88;;;15.68;85.74
58662;BME280;44432;49.786;22.760;2022-08-03T03:04:44;99595.23;;;15.68;85.76
58662;BME280;44432;49.786;22.760;2022-08-03T03:07:15;99593.83;;;15.67;85.68
58662;BME280;44432;49.786;22.760;2022-08-03T03:09:47;99592.91;;;15.66;85.75
58662;BME280;44432;49.786;22.760;2022-08-03T03:12:18;99595.83;;;15.66;85.65
58662;BME280;44432;49.786;22.760;2022-08-03T03:14:50;99596.30;;;15.66;85.82
58662;BME280;44432;49.786;22.760;2022-08-03T03:17:21;99596.20;;;15.66;85.76
58662;BME280;44432;49.786;22.760;2022-08-03T03:19:53;99597.24;;;15.65;85.64
58662;BME280;44432;49.786;22.760;2022-08-03T03:22:25;99592.64;;;15.63;85.53
58662;BME280;44432;49.786;22.760;2022-08-03T03:24:56;99593.80;;;15.63;85.67
58662;BME280;44432;49.786;22.760;2022-08-03T03:27:27;99592.29;;;15.64;85.84
58662;BME280;44432;49.786;22.760;2022-08-03T03:29:58;99590.02;;;15.66;85.80
58662;BME280;44432;49.786;22.760;2022-08-03T03:32:30;99584.15;;;15.62;85.55
58662;BME280;44432;49.786;22.760;2022-08-03T03:35:01;99585.33;;;15.65;85.81
58662;BME280;44432;49.786;22.760;2022-08-03T03:37:31;99591.30;;;15.69;85.97
58662;BME280;44432;49.786;22.760;2022-08-03T03:40:02;99584.00;;;15.71;85.93
58662;BME280;44432;49.786;22.760;2022-08-03T03:42:33;99589.77;;;15.73;85.84
58662;BME280;44432;49.786;22.760;2022-08-03T03:45:06;99588.29;;;15.76;86.02
58662;BME280;44432;49.786;22.760;2022-08-03T03:47:37;99592.86;;;15.78;86.00
58662;BME280;44432;49.786;22.760;2022-08-03T03:50:09;99600.06;;;15.82;86.05
58662;BME280;44432;49.786;22.760;2022-08-03T03:52:40;99601.76;;;15.87;85.76
58662;BME280;44432;49.786;22.760;2022-08-03T03:55:16;99603.84;;;15.91;85.67
58662;BME280;44432;49.786;22.760;2022-08-03T03:57:46;99608.06;;;15.94;85.63
58662;BME280;44432;49.786;22.760;2022-08-03T04:00:18;99611.36;;;15.97;85.50
58662;BME280;44432;49.786;22.760;2022-08-03T04:02:49;99606.81;;;15.99;85.41
58662;BME280;44432;49.786;22.760;2022-08-03T04:05:19;99611.73;;;16.02;85.38
58662;BME280;44432;49.786;22.760;2022-08-03T04:08:11;99616.80;;;16.03;85.06
58662;BME280;44432;49.786;22.760;2022-08-03T04:11:09;99615.84;;;16.03;85.00
58662;BME280;44432;49.786;22.760;2022-08-03T04:13:44;99620.37;;;16.03;84.91
58662;BME280;44432;49.786;22.760;2022-08-03T04:16:20;99620.11;;;16.01;84.91
58662;BME280;44432;49.786;22.760;2022-08-03T04:18:54;99624.70;;;16.01;85.09
58662;BME280;44432;49.786;22.760;2022-08-03T04:21:28;99623.35;;;16.03;84.91
58662;BME280;44432;49.786;22.760;2022-08-03T04:24:02;99626.70;;;16.06;85.02
58662;BME280;44432;49.786;22.760;2022-08-03T04:26:38;99628.53;;;16.10;85.13
58662;BME280;44432;49.786;22.760;2022-08-03T04:29:11;99628.04;;;16.15;85.19
58662;BME280;44432;49.786;22.760;2022-08-03T04:31:43;99628.92;;;16.23;84.92
58662;BME280;44432;49.786;22.760;2022-08-03T04:34:14;99626.29;;;16.31;84.80
58662;BME280;44432;49.786;22.760;2022-08-03T04:36:49;99626.35;;;16.39;84.82
58662;BME280;44432;49.786;22.760;2022-08-03T04:39:26;99627.95;;;16.45;84.69
58662;BME280;44432;49.786;22.760;2022-08-03T04:41:59;99633.36;;;16.54;84.62
58662;BME280;44432;49.786;22.760;2022-08-03T04:44:32;99637.77;;;16.62;84.34
58662;BME280;44432;49.786;22.760;2022-08-03T04:47:05;99639.78;;;16.73;84.36
58662;BME280;44432;49.786;22.760;2022-08-03T04:49:37;99643.81;;;16.82;84.05
58662;BME280;44432;49.786;22.760;2022-08-03T04:52:09;99647.80;;;16.91;84.01
58662;BME280;44432;49.786;22.760;2022-08-03T04:54:43;99645.48;;;17.00;83.63
58662;BME280;44432;49.786;22.760;2022-08-03T04:57:14;99647.92;;;17.07;83.44
58662;BME280;44432;49.786;22.760;2022-08-03T04:59:45;99645.85;;;17.11;83.36
58662;BME280;44432;49.786;22.760;2022-08-03T05:02:17;99650.64;;;17.18;83.37
58662;BME280;44432;49.786;22.760;2022-08-03T05:04:48;99652.27;;;17.21;82.94
58662;BME280;44432;49.786;22.760;2022-08-03T05:07:19;99654.54;;;17.25;83.03
58662;BME280;44432;49.786;22.760;2022-08-03T05:09:50;99652.49;;;17.33;82.95
58662;BME280;44432;49.786;22.760;2022-08-03T05:12:20;99653.28;;;17.40;82.97
58662;BME280;44432;49.786;22.760;2022-08-03T05:14:51;99656.58;;;17.44;82.81
58662;BME280;44432;49.786;22.760;2022-08-03T05:17:22;99653.09;;;17.50;82.68
58662;BME280;44432;49.786;22.760;2022-08-03T05:19:53;99652.52;;;17.56;82.68
58662;BME280;44432;49.786;22.760;2022-08-03T05:22:23;99653.30;;;17.63;82.45
58662;BME280;44432;49.786;22.760;2022-08-03T05:24:54;99653.44;;;17.70;82.30
58662;BME280;44432;49.786;22.760;2022-08-03T05:27:24;99651.36;;;17.76;82.28
58662;BME280;44432;49.786;22.760;2022-08-03T05:29:55;99652.39;;;17.81;82.16
58662;BME280;44432;49.786;22.760;2022-08-03T05:32:25;99656.98;;;17.87;82.02
58662;BME280;44432;49.786;22.760;2022-08-03T05:34:56;99658.34;;;17.94;82.05
58662;BME280;44432;49.786;22.760;2022-08-03T05:37:27;99659.66;;;18.02;81.95
58662;BME280;44432;49.786;22.760;2022-08-03T05:39:58;99664.71;;;18.10;81.88
58662;BME280;44432;49.786;22.760;2022-08-03T05:42:28;99668.95;;;18.17;81.74
58662;BME280;44432;49.786;22.760;2022-08-03T05:44:59;99672.06;;;18.24;81.66
58662;BME280;44432;49.786;22.760;2022-08-03T05:47:41;99672.05;;;18.35;81.60
58662;BME280;44432;49.786;22.760;2022-08-03T05:50:12;99672.81;;;18.41;81.40
58662;BME280;44432;49.786;22.760;2022-08-03T05:52:43;99678.81;;;18.48;81.39
58662;BME280;44432;49.786;22.760;2022-08-03T05:55:14;99674.30;;;18.57;81.28
58662;BME280;44432;49.786;22.760;2022-08-03T05:57:46;99677.39;;;18.67;81.00
58662;BME280;44432;49.786;22.760;2022-08-03T06:00:17;99675.93;;;18.75;80.77
58662;BME280;44432;49.786;22.760;2022-08-03T06:02:48;99676.84;;;18.83;80.65
58662;BME280;44432;49.786;22.760;2022-08-03T06:05:19;99679.52;;;18.90;80.46
58662;BME280;44432;49.786;22.760;2022-08-03T06:07:50;99681.63;;;19.00;80.31
58662;BME280;44432;49.786;22.760;2022-08-03T06:10:21;99683.75;;;19.06;80.06
58662;BME280;44432;49.786;22.760;2022-08-03T06:12:52;99683.05;;;19.14;79.95
58662;BME280;44432;49.786;22.760;2022-08-03T06:15:22;99678.05;;;19.21;79.91
58662;BME280;44432;49.786;22.760;2022-08-03T06:17:53;99681.75;;;19.27;79.74
58662;BME280;44432;49.786;22.760;2022-08-03T06:20:25;99686.42;;;19.33;79.69
58662;BME280;44432;49.786;22.760;2022-08-03T06:22:56;99682.97;;;19.37;79.60
58662;BME280;44432;49.786;22.760;2022-08-03T06:25:26;99687.42;;;19.39;79.48
58662;BME280;44432;49.786;22.760;2022-08-03T06:27:57;99685.90;;;19.43;79.52
58662;BME280;44432;49.786;22.760;2022-08-03T06:30:28;99684.63;;;19.47;79.47
58662;BME280;44432;49.786;22.760;2022-08-03T06:32:59;99684.20;;;19.52;79.27
58662;BME280;44432;49.786;22.760;2022-08-03T06:35:29;99681.59;;;19.56;79.23
58662;BME280;44432;49.786;22.760;2022-08-03T06:38:00;99681.98;;;19.57;79.14
58662;BME280;44432;49.786;22.760;2022-08-03T06:40:33;99680.44;;;19.61;79.24
58662;BME280;44432;49.786;22.760;2022-08-03T06:43:08;99679.93;;;19.67;79.26
58662;BME280;44432;49.786;22.760;2022-08-03T06:45:39;99682.89;;;19.75;79.35
58662;BME280;44432;49.786;22.760;2022-08-03T06:48:10;99684.95;;;19.85;79.44
58662;BME280;44432;49.786;22.760;2022-08-03T06:50:42;99683.69;;;19.95;79.21
58662;BME280;44432;49.786;22.760;2022-08-03T06:53:12;99685.27;;;20.05;79.16
58662;BME280;44432;49.786;22.760;2022-08-03T06:55:43;99686.10;;;20.16;78.85
58662;BME280;44432;49.786;22.760;2022-08-03T06:58:13;99684.84;;;20.28;78.64
58662;BME280;44432;49.786;22.760;2022-08-03T07:00:44;99691.05;;;20.41;78.38
58662;BME280;44432;49.786;22.760;2022-08-03T07:03:15;99689.72;;;20.51;78.23
58662;BME280;44432;49.786;22.760;2022-08-03T07:05:45;99690.69;;;20.63;77.92
58662;BME280;44432;49.786;22.760;2022-08-03T07:08:16;99698.25;;;20.75;77.10
58662;BME280;44432;49.786;22.760;2022-08-03T07:10:47;99694.84;;;20.86;76.80
58662;BME280;44432;49.786;22.760;2022-08-03T07:13:17;99696.77;;;21.01;76.37
58662;BME280;44432;49.786;22.760;2022-08-03T07:15:48;99692.39;;;21.14;75.86
58662;BME280;44432;49.786;22.760;2022-08-03T07:18:19;99694.91;;;21.29;75.54
58662;BME280;44432;49.786;22.760;2022-08-03T07:20:50;99695.09;;;21.45;74.98
58662;BME280;44432;49.786;22.760;2022-08-03T07:23:20;99694.60;;;21.62;74.43
58662;BME280;44432;49.786;22.760;2022-08-03T07:25:51;99693.36;;;21.74;73.20
58662;BME280;44432;49.786;22.760;2022-08-03T07:28:22;99696.52;;;21.86;72.65
58662;BME280;44432;49.786;22.760;2022-08-03T07:30:52;99694.95;;;21.96;72.21
58662;BME280;44432;49.786;22.760;2022-08-03T07:33:23;99694.57;;;22.03;70.57
58662;BME280;44432;49.786;22.760;2022-08-03T07:35:53;99693.73;;;22.10;68.78
58662;BME280;44432;49.786;22.760;2022-08-03T07:38:24;99694.69;;;22.20;68.17
58662;BME280;44432;49.786;22.760;2022-08-03T07:40:55;99691.55;;;22.30;67.66
58662;BME280;44432;49.786;22.760;2022-08-03T07:43:25;99690.30;;;22.42;66.84
58662;BME280;44432;49.786;22.760;2022-08-03T07:45:56;99692.13;;;22.49;64.52
58662;BME280;44432;49.786;22.760;2022-08-03T07:48:27;99691.59;;;22.55;64.10
58662;BME280;44432;49.786;22.760;2022-08-03T07:50:57;99691.84;;;22.66;63.72
58662;BME280;44432;49.786;22.760;2022-08-03T07:53:28;99691.96;;;22.76;63.20
58662;BME280;44432;49.786;22.760;2022-08-03T07:55:58;99693.92;;;22.88;63.29
58662;BME280;44432;49.786;22.760;2022-08-03T07:58:29;99698.20;;;23.01;62.66
58662;BME280;44432;49.786;22.760;2022-08-03T08:01:00;99693.70;;;23.09;61.88
58662;BME280;44432;49.786;22.760;2022-08-03T08:03:30;99695.08;;;23.18;60.68
58662;BME280;44432;49.786;22.760;2022-08-03T08:06:01;99695.37;;;23.26;60.73
58662;BME280;44432;49.786;22.760;2022-08-03T08:08:32;99695.34;;;23.34;60.26
58662;BME280;44432;49.786;22.760;2022-08-03T08:11:02;99692.21;;;23.43;59.89
58662;BME280;44432;49.786;22.760;2022-08-03T08:13:33;99694.33;;;23.52;58.85
58662;BME280;44432;49.786;22.760;2022-08-03T08:16:06;99695.80;;;23.62;57.86
58662;BME280;44432;49.786;22.760;2022-08-03T08:18:36;99697.70;;;23.70;57.60
58662;BME280;44432;49.786;22.760;2022-08-03T08:21:07;99694.59;;;23.77;57.54
58662;BME280;44432;49.786;22.760;2022-08-03T08:23:38;99694.11;;;23.85;57.41
58662;BME280;44432;49.786;22.760;2022-08-03T08:26:09;99696.27;;;23.92;57.04
58662;BME280;44432;49.786;22.760;2022-08-03T08:28:39;99691.18;;;24.00;56.35
58662;BME280;44432;49.786;22.760;2022-08-03T08:31:10;99695.53;;;24.09;55.62
58662;BME280;44432;49.786;22.760;2022-08-03T08:33:41;99693.98;;;24.19;55.54
58662;BME280;44432;49.786;22.760;2022-08-03T08:36:11;99698.79;;;24.32;55.25
58662;BME280;44432;49.786;22.760;2022-08-03T08:38:43;99699.09;;;24.44;54.87
58662;BME280;44432;49.786;22.760;2022-08-03T08:41:14;99705.79;;;24.56;53.99
58662;BME280;44432;49.786;22.760;2022-08-03T08:43:45;99700.96;;;24.56;52.96
58662;BME280;44432;49.786;22.760;2022-08-03T08:46:16;99699.45;;;24.49;52.32
58662;BME280;44432;49.786;22.760;2022-08-03T08:48:48;99699.89;;;24.53;52.39
58662;BME280;44432;49.786;22.760;2022-08-03T08:51:20;99699.26;;;24.65;52.56
58662;BME280;44432;49.786;22.760;2022-08-03T08:53:52;99698.05;;;24.76;52.38
58662;BME280;44432;49.786;22.760;2022-08-03T08:56:25;99700.42;;;24.86;51.89
58662;BME280;44432;49.786;22.760;2022-08-03T08:58:59;99701.73;;;24.91;51.19
58662;BME280;44432;49.786;22.760;2022-08-03T09:01:29;99700.52;;;24.89;50.44
58662;BME280;44432;49.786;22.760;2022-08-03T09:04:00;99695.67;;;24.85;50.45
58662;BME280;44432;49.786;22.760;2022-08-03T09:06:31;99698.48;;;24.92;50.35
58662;BME280;44432;49.786;22.760;2022-08-03T09:09:02;99701.02;;;24.99;50.11
58662;BME280;44432;49.786;22.760;2022-08-03T09:11:33;99698.63;;;25.02;49.43
58662;BME280;44432;49.786;22.760;2022-08-03T09:14:04;99701.16;;;25.02;49.21
58662;BME280;44432;49.786;22.760;2022-08-03T09:16:35;99699.01;;;25.08;49.18
58662;BME280;44432;49.786;22.760;2022-08-03T09:19:13;99700.45;;;25.18;48.38
58662;BME280;44432;49.786;22.760;2022-08-03T09:21:44;99699.37;;;25.21;48.13
58662;BME280;44432;49.786;22.760;2022-08-03T09:24:14;99697.23;;;25.25;48.39
58662;BME280;44432;49.786;22.760;2022-08-03T09:26:51;99694.52;;;25.32;48.42
58662;BME280;44432;49.786;22.760;2022-08-03T09:29:22;99693.23;;;25.36;48.62
58662;BME280;44432;49.786;22.760;2022-08-03T09:32:01;99695.66;;;25.39;48.22
58662;BME280;44432;49.786;22.760;2022-08-03T09:34:33;99689.45;;;25.39;47.80
58662;BME280;44432;49.786;22.760;2022-08-03T09:37:13;99689.13;;;25.31;47.61
58662;BME280;44432;49.786;22.760;2022-08-03T09:39:45;99683.70;;;25.24;47.75
58662;BME280;44432;49.786;22.760;2022-08-03T09:42:17;99684.33;;;25.21;48.04
58662;BME280;44432;49.786;22.760;2022-08-03T09:44:51;99679.88;;;25.23;47.82
58662;BME280;44432;49.786;22.760;2022-08-03T09:47:30;99681.00;;;25.24;47.15
58662;BME280;44432;49.786;22.760;2022-08-03T09:50:03;99687.48;;;25.23;46.57
58662;BME280;44432;49.786;22.760;2022-08-03T09:52:36;99684.23;;;25.26;46.49
58662;BME280;44432;49.786;22.760;2022-08-03T09:55:10;99684.36;;;25.34;46.92
58662;BME280;44432;49.786;22.760;2022-08-03T09:57:41;99681.63;;;25.44;46.53
58662;BME280;44432;49.786;22.760;2022-08-03T10:00:16;99679.63;;;25.53;46.28
58662;BME280;44432;49.786;22.760;2022-08-03T10:02:45;99678.00;;;25.58;45.92
58662;BME280;44432;49.786;22.760;2022-08-03T10:05:31;99677.33;;;25.59;45.48
58662;BME280;44432;49.786;22.760;2022-08-03T10:08:14;99671.09;;;25.52;45.24
58662;BME280;44432;49.786;22.760;2022-08-03T10:10:48;99669.34;;;25.52;45.56
58662;BME280;44432;49.786;22.760;2022-08-03T10:13:22;99672.42;;;25.58;45.49
58662;BME280;44432;49.786;22.760;2022-08-03T10:15:53;99674.00;;;25.63;45.24
58662;BME280;44432;49.786;22.760;2022-08-03T10:18:23;99670.51;;;25.68;45.21
58662;BME280;44432;49.786;22.760;2022-08-03T10:20:56;99669.60;;;25.73;44.60
58662;BME280;44432;49.786;22.760;2022-08-03T10:23:30;99671.92;;;25.78;45.02
58662;BME280;44432;49.786;22.760;2022-08-03T10:26:06;99666.50;;;25.82;44.84
58662;BME280;44432;49.786;22.760;2022-08-03T10:28:41;99671.80;;;25.78;43.32
58662;BME280;44432;49.786;22.760;2022-08-03T10:31:16;99668.34;;;25.66;43.91
58662;BME280;44432;49.786;22.760;2022-08-03T10:33:51;99666.08;;;25.68;44.30
58662;BME280;44432;49.786;22.760;2022-08-03T10:36:29;99666.52;;;25.75;44.34
58662;BME280;44432;49.786;22.760;2022-08-03T10:39:01;99667.94;;;25.85;44.30
58662;BME280;44432;49.786;22.760;2022-08-03T10:41:36;99669.81;;;25.96;44.05
58662;BME280;44432;49.786;22.760;2022-08-03T10:44:12;99669.14;;;26.02;43.00
58662;BME280;44432;49.786;22.760;2022-08-03T10:46:45;99670.08;;;26.04;43.06
58662;BME280;44432;49.786;22.760;2022-08-03T10:49:18;99671.67;;;26.11;43.54
58662;BME280;44432;49.786;22.760;2022-08-03T10:51:49;99669.08;;;26.17;42.90
58662;BME280;44432;49.786;22.760;2022-08-03T10:54:40;99660.90;;;26.13;42.03
58662;BME280;44432;49.786;22.760;2022-08-03T10:57:45;99661.14;;;26.09;42.09
58662;BME280;44432;49.786;22.760;2022-08-03T11:00:18;99657.64;;;26.16;42.39
58662;BME280;44432;49.786;22.760;2022-08-03T11:03:09;99652.71;;;26.25;42.77
58662;BME280;44432;49.786;22.760;2022-08-03T11:05:43;99654.70;;;26.34;42.25
58662;BME280;44432;49.786;22.760;2022-08-03T11:08:34;99652.00;;;26.30;41.71
58662;BME280;44432;49.786;22.760;2022-08-03T11:11:24;99648.69;;;26.23;41.94
58662;BME280;44432;49.786;22.760;2022-08-03T11:13:59;99651.46;;;26.30;42.38
58662;BME280;44432;49.786;22.760;2022-08-03T11:16:34;99649.61;;;26.40;42.13
58662;BME280;44432;49.786;22.760;2022-08-03T11:19:07;99647.26;;;26.55;42.10
58662;BME280;44432;49.786;22.760;2022-08-03T11:21:59;99645.71;;;26.69;41.80
58662;BME280;44432;49.786;22.760;2022-08-03T11:25:01;99642.33;;;26.78;41.19
58662;BME280;44432;49.786;22.760;2022-08-03T11:27:33;99645.82;;;26.88;41.17
58662;BME280;44432;49.786;22.760;2022-08-03T11:30:07;99642.91;;;26.93;40.65
58662;BME280;44432;49.786;22.760;2022-08-03T11:32:57;99639.81;;;26.96;40.71
58662;BME280;44432;49.786;22.760;2022-08-03T11:35:30;99634.95;;;27.06;41.01
58662;BME280;44432;49.786;22.760;2022-08-03T11:38:11;99632.38;;;27.20;41.24
58662;BME280;44432;49.786;22.760;2022-08-03T11:40:44;99629.27;;;27.37;41.25
58662;BME280;44432;49.786;22.760;2022-08-03T11:43:45;99629.85;;;27.55;40.79
58662;BME280;44432;49.786;22.760;2022-08-03T11:46:16;99624.19;;;27.64;40.35
58662;BME280;44432;49.786;22.760;2022-08-03T11:48:48;99618.49;;;27.78;40.44
58662;BME280;44432;49.786;22.760;2022-08-03T11:51:23;99617.20;;;27.92;39.88
58662;BME280;44432;49.786;22.760;2022-08-03T11:53:56;99615.76;;;27.93;39.18
58662;BME280;44432;49.786;22.760;2022-08-03T11:56:28;99613.39;;;27.85;39.13
58662;BME280;44432;49.786;22.760;2022-08-03T11:59:12;99607.68;;;27.92;39.41
58662;BME280;44432;49.786;22.760;2022-08-03T12:01:43;99605.05;;;28.07;39.65
58662;BME280;44432;49.786;22.760;2022-08-03T12:04:14;99609.35;;;28.25;39.53
58662;BME280;44432;49.786;22.760;2022-08-03T12:06:59;99609.86;;;28.35;38.72
58662;BME280;44432;49.786;22.760;2022-08-03T12:09:30;99605.95;;;28.40;38.58
58662;BME280;44432;49.786;22.760;2022-08-03T12:12:04;99605.25;;;28.52;38.74
58662;BME280;44432;49.786;22.760;2022-08-03T12:14:35;99601.20;;;28.72;38.36
58662;BME280;44432;49.786;22.760;2022-08-03T12:17:06;99600.00;;;28.84;37.92
58662;BME280;44432;49.786;22.760;2022-08-03T12:19:43;99598.69;;;28.93;37.54
58662;BME280;44432;49.786;22.760;2022-08-03T12:22:14;99603.34;;;28.97;37.34
58662;BME280;44432;49.786;22.760;2022-08-03T12:24:46;99603.20;;;28.93;36.96
58662;BME280;44432;49.786;22.760;2022-08-03T12:27:24;99595.64;;;28.97;37.27
58662;BME280;44432;49.786;22.760;2022-08-03T12:29:58;99593.91;;;28.96;36.56
58662;BME280;44432;49.786;22.760;2022-08-03T12:32:30;99591.42;;;28.87;36.53
58662;BME280;44432;49.786;22.760;2022-08-03T12:35:01;99592.04;;;28.94;36.73
58662;BME280;44432;49.786;22.760;2022-08-03T12:37:34;99585.41;;;28.95;36.24
58662;BME280;44432;49.786;22.760;2022-08-03T12:40:07;99587.87;;;28.89;36.22
58662;BME280;44432;49.786;22.760;2022-08-03T12:42:39;99589.45;;;28.84;36.07
58662;BME280;44432;49.786;22.760;2022-08-03T12:45:21;99587.99;;;28.88;36.20
58662;BME280;44432;49.786;22.760;2022-08-03T12:47:53;99590.42;;;28.87;35.35
58662;BME280;44432;49.786;22.760;2022-08-03T12:50:29;99583.89;;;28.79;35.66
58662;BME280;44432;49.786;22.760;2022-08-03T12:53:02;99583.67;;;28.92;35.99
58662;BME280;44432;49.786;22.760;2022-08-03T12:55:34;99578.28;;;29.00;35.87
58662;BME280;44432;49.786;22.760;2022-08-03T12:58:06;99581.13;;;28.82;35.11
58662;BME280;44432;49.786;22.760;2022-08-03T13:00:39;99577.61;;;28.72;35.36
58662;BME280;44432;49.786;22.760;2022-08-03T13:03:09;99576.48;;;28.75;35.91
58662;BME280;44432;49.786;22.760;2022-08-03T13:05:45;99578.13;;;28.76;35.59
58662;BME280;44432;49.786;22.760;2022-08-03T13:08:22;99574.30;;;28.64;35.88
58662;BME280;44432;49.786;22.760;2022-08-03T13:10:53;99574.17;;;28.48;35.52
58662;BME280;44432;49.786;22.760;2022-08-03T13:13:40;99569.64;;;28.29;36.15
58662;BME280;44432;49.786;22.760;2022-08-03T13:16:11;99569.04;;;28.27;36.31
58662;BME280;44432;49.786;22.760;2022-08-03T13:18:41;99567.24;;;28.29;36.13
58662;BME280;44432;49.786;22.760;2022-08-03T13:21:15;99565.93;;;28.29;36.12
58662;BME280;44432;49.786;22.760;2022-08-03T13:23:46;99564.98;;;28.28;36.34